sensor_id;sensor_type;location;lat;lon;timestamp;P1;durP1;ratioP1;P2;durP2;ratioP2
38455;SDS011;24237;50.106;20.014;2022-08-20T00:00:44;16.08;;;10.00;;
38455;SDS011;24237;50.106;20.014;2022-08-20T00:03:23;19.77;;;10.13;;
38455;SDS011;24237;50.106;20.014;2022-08-20T00:08:29;20.73;;;10.18;;
38455;SDS011;24237;50.106;20.014;2022-08-20T00:10:56;21.90;;;10.70;;
38455;SDS011;24237;50.106;20.014;2022-08-20T00:13:24;20.35;;;10.30;;
38455;SDS011;24237;50.106;20.014;2022-08-20T00:15:51;20.92;;;10.55;;
38455;SDS011;24237;50.106;20.014;2022-08-20T00:18:18;18.70;;;9.20;;
38455;SDS011;24237;50.106;20.014;2022-08-20T00:20:45;19.63;;;10.07;;
38455;SDS011;24237;50.106;20.014;2022-08-20T00:23:19;18.55;;;10.98;;
38455;SDS011;24237;50.106;20.014;2022-08-20T00:25:45;19.08;;;9.85;;
38455;SDS011;24237;50.106;20.014;2022-08-20T00:28:26;19.30;;;10.95;;
38455;SDS011;24237;50.106;20.014;2022-08-20T00:30:55;21.60;;;10.88;;
38455;SDS011;24237;50.106;20.014;2022-08-20T00:33:22;18.63;;;10.88;;
38455;SDS011;24237;50.106;20.014;2022-08-20T00:35:49;19.45;;;10.63;;
38455;SDS011;24237;50.106;20.014;2022-08-20T00:38:23;19.30;;;9.93;;
38455;SDS011;24237;50.106;20.014;2022-08-20T00:41:00;21.00;;;10.07;;
38455;SDS011;24237;50.106;20.014;2022-08-20T00:45:51;17.92;;;10.15;;
38455;SDS011;24237;50.106;20.014;2022-08-20T00:48:31;24.15;;;9.73;;
38455;SDS011;24237;50.106;20.014;2022-08-20T00:51:05;17.42;;;10.73;;
38455;SDS011;24237;50.106;20.014;2022-08-20T00:54:03;19.55;;;9.32;;
38455;SDS011;24237;50.106;20.014;2022-08-20T00:56:34;14.45;;;9.65;;
38455;SDS011;24237;50.106;20.014;2022-08-20T00:59:01;18.83;;;8.98;;
38455;SDS011;24237;50.106;20.014;2022-08-20T01:01:30;19.55;;;9.75;;
38455;SDS011;24237;50.106;20.014;2022-08-20T01:03:58;15.77;;;9.25;;
38455;SDS011;24237;50.106;20.014;2022-08-20T01:06:24;14.82;;;9.10;;
38455;SDS011;24237;50.106;20.014;2022-08-20T01:08:50;20.08;;;10.07;;
38455;SDS011;24237;50.106;20.014;2022-08-20T01:11:16;21.95;;;9.65;;
38455;SDS011;24237;50.106;20.014;2022-08-20T01:13:45;19.52;;;10.20;;
38455;SDS011;24237;50.106;20.014;2022-08-20T01:16:14;29.13;;;14.10;;
38455;SDS011;24237;50.106;20.014;2022-08-20T01:18:46;21.80;;;9.88;;
38455;SDS011;24237;50.106;20.014;2022-08-20T01:21:22;19.55;;;9.77;;
38455;SDS011;24237;50.106;20.014;2022-08-20T01:23:58;18.20;;;10.25;;
38455;SDS011;24237;50.106;20.014;2022-08-20T01:26:46;14.88;;;9.50;;
38455;SDS011;24237;50.106;20.014;2022-08-20T01:31:40;16.63;;;9.55;;
38455;SDS011;24237;50.106;20.014;2022-08-20T01:34:09;14.65;;;9.75;;
38455;SDS011;24237;50.106;20.014;2022-08-20T01:36:50;16.50;;;10.00;;
38455;SDS011;24237;50.106;20.014;2022-08-20T01:39:27;21.02;;;10.88;;
38455;SDS011;24237;50.106;20.014;2022-08-20T01:44:51;22.92;;;9.55;;
38455;SDS011;24237;50.106;20.014;2022-08-20T01:47:21;20.65;;;9.80;;
38455;SDS011;24237;50.106;20.014;2022-08-20T01:49:54;16.10;;;9.50;;
38455;SDS011;24237;50.106;20.014;2022-08-20T01:52:30;17.05;;;9.10;;
38455;SDS011;24237;50.106;20.014;2022-08-20T01:55:23;14.38;;;9.35;;
38455;SDS011;24237;50.106;20.014;2022-08-20T01:57:52;19.88;;;9.32;;
38455;SDS011;24237;50.106;20.014;2022-08-20T02:00:21;17.88;;;9.43;;
38455;SDS011;24237;50.106;20.014;2022-08-20T02:02:48;14.20;;;8.98;;
38455;SDS011;24237;50.106;20.014;2022-08-20T02:05:14;24.60;;;10.93;;
38455;SDS011;24237;50.106;20.014;2022-08-20T02:07:40;15.98;;;9.57;;
38455;SDS011;24237;50.106;20.014;2022-08-20T02:10:07;18.52;;;8.77;;
38455;SDS011;24237;50.106;20.014;2022-08-20T02:12:34;12.77;;;8.05;;
38455;SDS011;24237;50.106;20.014;2022-08-20T02:15:00;18.13;;;9.35;;
38455;SDS011;24237;50.106;20.014;2022-08-20T02:17:27;15.45;;;9.05;;
38455;SDS011;24237;50.106;20.014;2022-08-20T02:19:57;23.40;;;9.32;;
38455;SDS011;24237;50.106;20.014;2022-08-20T02:22:33;13.80;;;8.90;;
38455;SDS011;24237;50.106;20.014;2022-08-20T02:25:04;21.55;;;9.38;;
38455;SDS011;24237;50.106;20.014;2022-08-20T02:27:31;14.55;;;8.73;;
38455;SDS011;24237;50.106;20.014;2022-08-20T02:29:57;13.68;;;8.80;;
38455;SDS011;24237;50.106;20.014;2022-08-20T02:32:22;14.23;;;9.65;;
38455;SDS011;24237;50.106;20.014;2022-08-20T02:34:48;19.20;;;9.90;;
38455;SDS011;24237;50.106;20.014;2022-08-20T02:37:14;19.55;;;9.30;;
38455;SDS011;24237;50.106;20.014;2022-08-20T02:39:42;16.50;;;9.23;;
38455;SDS011;24237;50.106;20.014;2022-08-20T02:42:09;14.35;;;9.75;;
38455;SDS011;24237;50.106;20.014;2022-08-20T02:44:39;18.55;;;9.05;;
38455;SDS011;24237;50.106;20.014;2022-08-20T02:47:05;16.13;;;8.85;;
38455;SDS011;24237;50.106;20.014;2022-08-20T02:49:31;14.55;;;9.75;;
38455;SDS011;24237;50.106;20.014;2022-08-20T02:51:57;17.08;;;8.57;;
38455;SDS011;24237;50.106;20.014;2022-08-20T02:54:23;17.98;;;9.02;;
38455;SDS011;24237;50.106;20.014;2022-08-20T02:56:49;17.73;;;9.70;;
38455;SDS011;24237;50.106;20.014;2022-08-20T02:59:16;17.30;;;9.40;;
38455;SDS011;24237;50.106;20.014;2022-08-20T03:01:48;19.47;;;9.63;;
38455;SDS011;24237;50.106;20.014;2022-08-20T03:04:16;18.15;;;9.07;;
38455;SDS011;24237;50.106;20.014;2022-08-20T03:06:48;15.25;;;8.55;;
38455;SDS011;24237;50.106;20.014;2022-08-20T03:09:13;16.88;;;7.93;;
38455;SDS011;24237;50.106;20.014;2022-08-20T03:11:39;16.70;;;7.82;;
38455;SDS011;24237;50.106;20.014;2022-08-20T03:14:17;15.32;;;9.32;;
38455;SDS011;24237;50.106;20.014;2022-08-20T03:16:43;15.70;;;8.52;;
38455;SDS011;24237;50.106;20.014;2022-08-20T03:19:09;14.05;;;8.60;;
38455;SDS011;24237;50.106;20.014;2022-08-20T03:21:34;15.00;;;8.68;;
38455;SDS011;24237;50.106;20.014;2022-08-20T03:24:01;18.85;;;9.35;;
38455;SDS011;24237;50.106;20.014;2022-08-20T03:26:26;23.98;;;9.77;;
38455;SDS011;24237;50.106;20.014;2022-08-20T03:28:52;18.80;;;9.00;;
38455;SDS011;24237;50.106;20.014;2022-08-20T03:31:18;11.68;;;8.88;;
38455;SDS011;24237;50.106;20.014;2022-08-20T03:33:43;21.35;;;10.05;;
38455;SDS011;24237;50.106;20.014;2022-08-20T03:36:09;20.13;;;9.80;;
38455;SDS011;24237;50.106;20.014;2022-08-20T03:38:35;19.02;;;9.77;;
38455;SDS011;24237;50.106;20.014;2022-08-20T03:41:01;16.17;;;9.55;;
38455;SDS011;24237;50.106;20.014;2022-08-20T03:43:28;18.63;;;9.68;;
38455;SDS011;24237;50.106;20.014;2022-08-20T03:45:56;19.83;;;9.35;;
38455;SDS011;24237;50.106;20.014;2022-08-20T03:48:23;18.02;;;9.32;;
38455;SDS011;24237;50.106;20.014;2022-08-20T03:50:52;16.00;;;9.25;;
38455;SDS011;24237;50.106;20.014;2022-08-20T03:53:26;20.73;;;10.40;;
38455;SDS011;24237;50.106;20.014;2022-08-20T03:55:59;20.27;;;8.95;;
38455;SDS011;24237;50.106;20.014;2022-08-20T03:58:28;23.27;;;10.05;;
38455;SDS011;24237;50.106;20.014;2022-08-20T04:03:30;23.23;;;9.48;;
38455;SDS011;24237;50.106;20.014;2022-08-20T04:05:56;19.25;;;10.13;;
38455;SDS011;24237;50.106;20.014;2022-08-20T04:08:23;16.57;;;9.77;;
38455;SDS011;24237;50.106;20.014;2022-08-20T04:10:51;19.20;;;9.80;;
38455;SDS011;24237;50.106;20.014;2022-08-20T04:13:20;17.92;;;9.25;;
38455;SDS011;24237;50.106;20.014;2022-08-20T04:15:46;19.70;;;9.50;;
38455;SDS011;24237;50.106;20.014;2022-08-20T04:18:12;19.48;;;9.27;;
38455;SDS011;24237;50.106;20.014;2022-08-20T04:20:40;17.77;;;9.73;;
38455;SDS011;24237;50.106;20.014;2022-08-20T04:23:07;19.27;;;9.98;;
38455;SDS011;24237;50.106;20.014;2022-08-20T04:25:38;18.58;;;9.23;;
38455;SDS011;24237;50.106;20.014;2022-08-20T04:28:06;21.40;;;9.90;;
38455;SDS011;24237;50.106;20.014;2022-08-20T04:30:33;21.27;;;9.98;;
38455;SDS011;24237;50.106;20.014;2022-08-20T04:32:59;22.25;;;9.77;;
38455;SDS011;24237;50.106;20.014;2022-08-20T04:35:25;23.23;;;10.83;;
38455;SDS011;24237;50.106;20.014;2022-08-20T04:38:08;21.37;;;9.83;;
38455;SDS011;24237;50.106;20.014;2022-08-20T04:40:43;23.55;;;10.32;;
38455;SDS011;24237;50.106;20.014;2022-08-20T04:45:46;29.25;;;12.63;;
38455;SDS011;24237;50.106;20.014;2022-08-20T04:48:12;23.70;;;10.55;;
38455;SDS011;24237;50.106;20.014;2022-08-20T04:50:39;31.52;;;11.88;;
38455;SDS011;24237;50.106;20.014;2022-08-20T04:53:08;16.73;;;10.05;;
38455;SDS011;24237;50.106;20.014;2022-08-20T04:55:41;19.33;;;10.98;;
38455;SDS011;24237;50.106;20.014;2022-08-20T04:58:09;17.20;;;10.57;;
38455;SDS011;24237;50.106;20.014;2022-08-20T05:00:44;32.15;;;11.30;;
38455;SDS011;24237;50.106;20.014;2022-08-20T05:03:18;37.28;;;11.90;;
38455;SDS011;24237;50.106;20.014;2022-08-20T05:05:44;27.98;;;10.07;;
38455;SDS011;24237;50.106;20.014;2022-08-20T05:08:11;34.35;;;10.98;;
38455;SDS011;24237;50.106;20.014;2022-08-20T05:10:38;30.42;;;11.10;;
38455;SDS011;24237;50.106;20.014;2022-08-20T05:13:08;37.50;;;11.10;;
38455;SDS011;24237;50.106;20.014;2022-08-20T05:15:34;39.15;;;10.85;;
38455;SDS011;24237;50.106;20.014;2022-08-20T05:18:02;22.05;;;9.20;;
38455;SDS011;24237;50.106;20.014;2022-08-20T05:23:09;19.50;;;9.52;;
38455;SDS011;24237;50.106;20.014;2022-08-20T05:25:43;21.47;;;9.63;;
38455;SDS011;24237;50.106;20.014;2022-08-20T05:28:15;23.13;;;9.32;;
38455;SDS011;24237;50.106;20.014;2022-08-20T05:30:52;24.38;;;9.65;;
38455;SDS011;24237;50.106;20.014;2022-08-20T05:33:19;21.95;;;9.00;;
38455;SDS011;24237;50.106;20.014;2022-08-20T05:35:47;22.27;;;9.95;;
38455;SDS011;24237;50.106;20.014;2022-08-20T05:38:21;20.38;;;11.07;;
38455;SDS011;24237;50.106;20.014;2022-08-20T05:40:48;19.45;;;9.25;;
38455;SDS011;24237;50.106;20.014;2022-08-20T05:43:14;28.05;;;10.00;;
38455;SDS011;24237;50.106;20.014;2022-08-20T05:45:42;16.67;;;9.75;;
38455;SDS011;24237;50.106;20.014;2022-08-20T05:48:10;14.27;;;8.90;;
38455;SDS011;24237;50.106;20.014;2022-08-20T05:50:41;16.73;;;8.98;;
38455;SDS011;24237;50.106;20.014;2022-08-20T05:53:10;21.88;;;9.50;;
38455;SDS011;24237;50.106;20.014;2022-08-20T05:55:48;19.42;;;9.25;;
38455;SDS011;24237;50.106;20.014;2022-08-20T05:58:21;25.50;;;9.18;;
38455;SDS011;24237;50.106;20.014;2022-08-20T06:00:50;24.33;;;9.05;;
38455;SDS011;24237;50.106;20.014;2022-08-20T06:03:16;23.15;;;10.32;;
38455;SDS011;24237;50.106;20.014;2022-08-20T06:06:01;20.30;;;8.73;;
38455;SDS011;24237;50.106;20.014;2022-08-20T06:08:30;18.08;;;8.27;;
38455;SDS011;24237;50.106;20.014;2022-08-20T06:11:14;18.70;;;9.25;;
38455;SDS011;24237;50.106;20.014;2022-08-20T06:13:39;20.00;;;9.43;;
38455;SDS011;24237;50.106;20.014;2022-08-20T06:16:08;17.45;;;9.48;;
38455;SDS011;24237;50.106;20.014;2022-08-20T06:18:34;17.83;;;8.15;;
38455;SDS011;24237;50.106;20.014;2022-08-20T06:21:02;19.45;;;8.73;;
38455;SDS011;24237;50.106;20.014;2022-08-20T06:23:28;17.40;;;8.70;;
38455;SDS011;24237;50.106;20.014;2022-08-20T06:25:54;22.02;;;8.73;;
38455;SDS011;24237;50.106;20.014;2022-08-20T06:28:19;17.45;;;7.57;;
38455;SDS011;24237;50.106;20.014;2022-08-20T06:30:45;18.02;;;8.98;;
38455;SDS011;24237;50.106;20.014;2022-08-20T06:33:11;17.90;;;9.13;;
38455;SDS011;24237;50.106;20.014;2022-08-20T06:35:36;18.13;;;8.88;;
38455;SDS011;24237;50.106;20.014;2022-08-20T06:38:03;18.20;;;8.73;;
38455;SDS011;24237;50.106;20.014;2022-08-20T06:40:33;16.73;;;8.30;;
38455;SDS011;24237;50.106;20.014;2022-08-20T06:42:58;23.67;;;8.27;;
38455;SDS011;24237;50.106;20.014;2022-08-20T06:45:26;18.52;;;7.60;;
38455;SDS011;24237;50.106;20.014;2022-08-20T06:48:03;16.92;;;8.27;;
38455;SDS011;24237;50.106;20.014;2022-08-20T06:50:36;20.42;;;7.88;;
38455;SDS011;24237;50.106;20.014;2022-08-20T06:53:08;15.38;;;7.85;;
38455;SDS011;24237;50.106;20.014;2022-08-20T06:55:36;18.83;;;8.15;;
38455;SDS011;24237;50.106;20.014;2022-08-20T06:58:06;24.70;;;8.52;;
38455;SDS011;24237;50.106;20.014;2022-08-20T07:00:33;16.48;;;8.38;;
38455;SDS011;24237;50.106;20.014;2022-08-20T07:03:07;10.52;;;7.05;;
38455;SDS011;24237;50.106;20.014;2022-08-20T07:05:34;20.33;;;8.48;;
38455;SDS011;24237;50.106;20.014;2022-08-20T07:08:02;18.30;;;8.07;;
38455;SDS011;24237;50.106;20.014;2022-08-20T07:10:28;14.10;;;8.40;;
38455;SDS011;24237;50.106;20.014;2022-08-20T07:12:55;18.40;;;8.35;;
38455;SDS011;24237;50.106;20.014;2022-08-20T07:15:22;17.90;;;9.10;;
38455;SDS011;24237;50.106;20.014;2022-08-20T07:17:59;20.50;;;7.93;;
38455;SDS011;24237;50.106;20.014;2022-08-20T07:20:28;14.02;;;8.48;;
38455;SDS011;24237;50.106;20.014;2022-08-20T07:22:55;17.35;;;7.90;;
38455;SDS011;24237;50.106;20.014;2022-08-20T07:25:22;20.65;;;8.65;;
38455;SDS011;24237;50.106;20.014;2022-08-20T07:27:48;15.65;;;8.90;;
38455;SDS011;24237;50.106;20.014;2022-08-20T07:30:17;15.82;;;8.45;;
38455;SDS011;24237;50.106;20.014;2022-08-20T07:33:03;16.65;;;8.82;;
38455;SDS011;24237;50.106;20.014;2022-08-20T07:35:29;22.48;;;8.18;;
38455;SDS011;24237;50.106;20.014;2022-08-20T07:37:55;19.90;;;8.37;;
38455;SDS011;24237;50.106;20.014;2022-08-20T07:40:28;21.75;;;9.27;;
38455;SDS011;24237;50.106;20.014;2022-08-20T07:43:01;19.13;;;8.38;;
38455;SDS011;24237;50.106;20.014;2022-08-20T07:45:27;22.13;;;7.97;;
38455;SDS011;24237;50.106;20.014;2022-08-20T07:48:10;20.90;;;8.68;;
38455;SDS011;24237;50.106;20.014;2022-08-20T07:50:37;15.40;;;9.05;;
38455;SDS011;24237;50.106;20.014;2022-08-20T07:53:06;14.13;;;7.87;;
38455;SDS011;24237;50.106;20.014;2022-08-20T07:55:40;16.40;;;7.75;;
38455;SDS011;24237;50.106;20.014;2022-08-20T07:58:11;19.48;;;9.18;;
38455;SDS011;24237;50.106;20.014;2022-08-20T08:00:38;16.88;;;8.45;;
38455;SDS011;24237;50.106;20.014;2022-08-20T08:03:08;18.00;;;8.97;;
38455;SDS011;24237;50.106;20.014;2022-08-20T08:05:35;12.90;;;8.15;;
38455;SDS011;24237;50.106;20.014;2022-08-20T08:08:03;17.80;;;8.77;;
38455;SDS011;24237;50.106;20.014;2022-08-20T08:10:37;22.17;;;9.35;;
38455;SDS011;24237;50.106;20.014;2022-08-20T08:13:05;16.15;;;9.02;;
38455;SDS011;24237;50.106;20.014;2022-08-20T08:15:40;21.33;;;8.90;;
38455;SDS011;24237;50.106;20.014;2022-08-20T08:20:56;22.65;;;8.82;;
38455;SDS011;24237;50.106;20.014;2022-08-20T08:23:22;18.08;;;10.65;;
38455;SDS011;24237;50.106;20.014;2022-08-20T08:25:49;15.83;;;9.50;;
38455;SDS011;24237;50.106;20.014;2022-08-20T08:28:24;17.88;;;9.25;;
38455;SDS011;24237;50.106;20.014;2022-08-20T08:31:16;21.25;;;9.68;;
38455;SDS011;24237;50.106;20.014;2022-08-20T08:33:50;16.77;;;9.57;;
38455;SDS011;24237;50.106;20.014;2022-08-20T08:36:16;20.80;;;8.95;;
38455;SDS011;24237;50.106;20.014;2022-08-20T08:38:43;14.20;;;9.35;;
38455;SDS011;24237;50.106;20.014;2022-08-20T08:41:19;20.33;;;9.30;;
38455;SDS011;24237;50.106;20.014;2022-08-20T08:44:18;18.13;;;8.43;;
38455;SDS011;24237;50.106;20.014;2022-08-20T08:47:15;15.85;;;8.35;;
38455;SDS011;24237;50.106;20.014;2022-08-20T08:49:46;18.05;;;9.32;;
38455;SDS011;24237;50.106;20.014;2022-08-20T08:52:21;19.45;;;11.77;;
38455;SDS011;24237;50.106;20.014;2022-08-20T08:55:15;14.55;;;8.15;;
38455;SDS011;24237;50.106;20.014;2022-08-20T08:57:45;20.00;;;7.85;;
38455;SDS011;24237;50.106;20.014;2022-08-20T09:00:14;20.88;;;8.18;;
38455;SDS011;24237;50.106;20.014;2022-08-20T09:05:45;14.02;;;8.05;;
38455;SDS011;24237;50.106;20.014;2022-08-20T09:08:15;11.90;;;7.75;;
38455;SDS011;24237;50.106;20.014;2022-08-20T09:10:47;15.43;;;7.55;;
38455;SDS011;24237;50.106;20.014;2022-08-20T09:13:13;20.67;;;8.10;;
38455;SDS011;24237;50.106;20.014;2022-08-20T09:15:38;17.77;;;8.98;;
38455;SDS011;24237;50.106;20.014;2022-08-20T09:18:04;14.27;;;8.50;;
38455;SDS011;24237;50.106;20.014;2022-08-20T09:20:30;11.88;;;7.75;;
38455;SDS011;24237;50.106;20.014;2022-08-20T09:22:56;15.10;;;7.72;;
38455;SDS011;24237;50.106;20.014;2022-08-20T09:25:22;11.90;;;7.30;;
38455;SDS011;24237;50.106;20.014;2022-08-20T09:27:48;14.60;;;7.60;;
38455;SDS011;24237;50.106;20.014;2022-08-20T09:30:14;14.05;;;7.00;;
38455;SDS011;24237;50.106;20.014;2022-08-20T09:32:40;19.45;;;6.78;;
38455;SDS011;24237;50.106;20.014;2022-08-20T09:35:06;18.75;;;6.93;;
38455;SDS011;24237;50.106;20.014;2022-08-20T09:37:32;33.27;;;7.67;;
38455;SDS011;24237;50.106;20.014;2022-08-20T09:39:58;13.90;;;6.90;;
38455;SDS011;24237;50.106;20.014;2022-08-20T09:42:25;11.55;;;6.75;;
38455;SDS011;24237;50.106;20.014;2022-08-20T09:44:53;13.57;;;6.63;;
38455;SDS011;24237;50.106;20.014;2022-08-20T09:47:19;13.60;;;6.60;;
38455;SDS011;24237;50.106;20.014;2022-08-20T09:49:45;14.13;;;6.32;;
38455;SDS011;24237;50.106;20.014;2022-08-20T09:55:06;10.50;;;6.38;;
38455;SDS011;24237;50.106;20.014;2022-08-20T09:57:52;13.70;;;6.10;;
38455;SDS011;24237;50.106;20.014;2022-08-20T10:00:19;11.57;;;7.05;;
38455;SDS011;24237;50.106;20.014;2022-08-20T10:02:46;13.52;;;6.57;;
38455;SDS011;24237;50.106;20.014;2022-08-20T10:07:38;11.30;;;6.78;;
38455;SDS011;24237;50.106;20.014;2022-08-20T10:10:05;16.02;;;7.07;;
38455;SDS011;24237;50.106;20.014;2022-08-20T10:12:33;17.35;;;7.53;;
38455;SDS011;24237;50.106;20.014;2022-08-20T10:14:59;15.77;;;6.05;;
38455;SDS011;24237;50.106;20.014;2022-08-20T10:17:28;14.88;;;6.60;;
38455;SDS011;24237;50.106;20.014;2022-08-20T10:19:54;15.27;;;7.05;;
38455;SDS011;24237;50.106;20.014;2022-08-20T10:22:20;11.02;;;6.45;;
38455;SDS011;24237;50.106;20.014;2022-08-20T10:24:46;9.68;;;6.40;;
38455;SDS011;24237;50.106;20.014;2022-08-20T10:27:12;14.25;;;6.78;;
38455;SDS011;24237;50.106;20.014;2022-08-20T10:29:39;15.57;;;6.70;;
38455;SDS011;24237;50.106;20.014;2022-08-20T10:32:11;13.35;;;6.65;;
38455;SDS011;24237;50.106;20.014;2022-08-20T10:34:40;17.42;;;6.82;;
38455;SDS011;24237;50.106;20.014;2022-08-20T10:37:07;12.35;;;6.00;;
38455;SDS011;24237;50.106;20.014;2022-08-20T10:39:40;16.50;;;6.32;;
38455;SDS011;24237;50.106;20.014;2022-08-20T10:42:08;11.60;;;5.93;;
38455;SDS011;24237;50.106;20.014;2022-08-20T10:44:34;14.45;;;6.30;;
38455;SDS011;24237;50.106;20.014;2022-08-20T10:47:17;12.85;;;6.35;;
38455;SDS011;24237;50.106;20.014;2022-08-20T10:50:03;11.77;;;6.20;;
38455;SDS011;24237;50.106;20.014;2022-08-20T10:58:41;14.38;;;6.43;;
38455;SDS011;24237;50.106;20.014;2022-08-20T11:01:07;14.80;;;6.55;;
38455;SDS011;24237;50.106;20.014;2022-08-20T11:03:45;12.13;;;6.40;;
38455;SDS011;24237;50.106;20.014;2022-08-20T11:06:11;20.85;;;6.38;;
38455;SDS011;24237;50.106;20.014;2022-08-20T11:08:36;9.63;;;6.13;;
38455;SDS011;24237;50.106;20.014;2022-08-20T11:11:20;10.35;;;6.47;;
38455;SDS011;24237;50.106;20.014;2022-08-20T11:13:54;19.27;;;6.32;;
38455;SDS011;24237;50.106;20.014;2022-08-20T11:16:20;13.70;;;6.15;;
38455;SDS011;24237;50.106;20.014;2022-08-20T11:18:45;12.23;;;6.25;;
38455;SDS011;24237;50.106;20.014;2022-08-20T11:21:11;17.35;;;6.15;;
38455;SDS011;24237;50.106;20.014;2022-08-20T11:23:43;15.93;;;7.13;;
38455;SDS011;24237;50.106;20.014;2022-08-20T11:26:13;13.82;;;6.82;;
38455;SDS011;24237;50.106;20.014;2022-08-20T11:29:09;13.17;;;6.70;;
38455;SDS011;24237;50.106;20.014;2022-08-20T11:31:40;11.77;;;7.25;;
38455;SDS011;24237;50.106;20.014;2022-08-20T11:34:09;12.60;;;7.25;;
38455;SDS011;24237;50.106;20.014;2022-08-20T11:36:37;13.17;;;7.30;;
38455;SDS011;24237;50.106;20.014;2022-08-20T11:39:15;10.85;;;7.13;;
38455;SDS011;24237;50.106;20.014;2022-08-20T11:41:56;14.93;;;6.60;;
38455;SDS011;24237;50.106;20.014;2022-08-20T11:44:22;10.98;;;6.05;;
38455;SDS011;24237;50.106;20.014;2022-08-20T11:47:40;15.00;;;6.78;;
38455;SDS011;24237;50.106;20.014;2022-08-20T11:50:10;12.27;;;7.20;;
38455;SDS011;24237;50.106;20.014;2022-08-20T11:52:41;16.23;;;6.93;;
38455;SDS011;24237;50.106;20.014;2022-08-20T11:55:14;11.15;;;6.72;;
38455;SDS011;24237;50.106;20.014;2022-08-20T11:57:42;16.27;;;7.25;;
38455;SDS011;24237;50.106;20.014;2022-08-20T12:00:19;9.27;;;6.43;;
38455;SDS011;24237;50.106;20.014;2022-08-20T12:02:49;13.52;;;6.47;;
38455;SDS011;24237;50.106;20.014;2022-08-20T12:05:16;15.68;;;6.53;;
38455;SDS011;24237;50.106;20.014;2022-08-20T12:07:45;11.93;;;6.68;;
38455;SDS011;24237;50.106;20.014;2022-08-20T12:10:11;14.57;;;6.50;;
38455;SDS011;24237;50.106;20.014;2022-08-20T12:12:37;11.90;;;6.55;;
38455;SDS011;24237;50.106;20.014;2022-08-20T12:15:03;13.07;;;6.38;;
38455;SDS011;24237;50.106;20.014;2022-08-20T12:17:31;11.93;;;5.82;;
38455;SDS011;24237;50.106;20.014;2022-08-20T12:20:01;12.20;;;6.60;;
38455;SDS011;24237;50.106;20.014;2022-08-20T12:22:30;11.35;;;5.65;;
38455;SDS011;24237;50.106;20.014;2022-08-20T12:24:55;10.40;;;5.93;;
38455;SDS011;24237;50.106;20.014;2022-08-20T12:27:25;18.27;;;7.20;;
38455;SDS011;24237;50.106;20.014;2022-08-20T12:29:54;12.90;;;6.78;;
38455;SDS011;24237;50.106;20.014;2022-08-20T12:32:29;12.48;;;6.15;;
38455;SDS011;24237;50.106;20.014;2022-08-20T12:37:22;12.02;;;6.25;;
38455;SDS011;24237;50.106;20.014;2022-08-20T12:39:51;13.25;;;6.00;;
38455;SDS011;24237;50.106;20.014;2022-08-20T12:42:21;16.05;;;6.75;;
38455;SDS011;24237;50.106;20.014;2022-08-20T12:44:48;13.75;;;7.50;;
38455;SDS011;24237;50.106;20.014;2022-08-20T12:47:21;11.43;;;6.32;;
38455;SDS011;24237;50.106;20.014;2022-08-20T12:49:53;11.60;;;6.57;;
38455;SDS011;24237;50.106;20.014;2022-08-20T12:52:54;10.43;;;6.55;;
38455;SDS011;24237;50.106;20.014;2022-08-20T12:55:20;12.07;;;7.03;;
38455;SDS011;24237;50.106;20.014;2022-08-20T12:58:07;14.27;;;6.95;;
38455;SDS011;24237;50.106;20.014;2022-08-20T13:00:39;17.50;;;7.15;;
38455;SDS011;24237;50.106;20.014;2022-08-20T13:03:10;16.15;;;7.43;;
38455;SDS011;24237;50.106;20.014;2022-08-20T13:05:37;14.25;;;6.93;;
38455;SDS011;24237;50.106;20.014;2022-08-20T13:08:06;14.10;;;7.45;;
38455;SDS011;24237;50.106;20.014;2022-08-20T13:10:35;11.52;;;7.18;;
38455;SDS011;24237;50.106;20.014;2022-08-20T13:13:07;18.02;;;7.05;;
38455;SDS011;24237;50.106;20.014;2022-08-20T13:15:34;11.75;;;7.03;;
38455;SDS011;24237;50.106;20.014;2022-08-20T13:18:02;13.85;;;7.72;;
38455;SDS011;24237;50.106;20.014;2022-08-20T13:20:34;17.17;;;7.95;;
38455;SDS011;24237;50.106;20.014;2022-08-20T13:23:03;16.98;;;7.85;;
38455;SDS011;24237;50.106;20.014;2022-08-20T13:25:29;18.20;;;7.40;;
38455;SDS011;24237;50.106;20.014;2022-08-20T13:28:04;14.43;;;8.00;;
38455;SDS011;24237;50.106;20.014;2022-08-20T13:30:33;14.02;;;7.15;;
38455;SDS011;24237;50.106;20.014;2022-08-20T13:33:05;23.67;;;8.10;;
38455;SDS011;24237;50.106;20.014;2022-08-20T13:35:31;20.45;;;7.93;;
38455;SDS011;24237;50.106;20.014;2022-08-20T13:37:56;25.95;;;10.25;;
38455;SDS011;24237;50.106;20.014;2022-08-20T13:40:22;24.95;;;9.70;;
38455;SDS011;24237;50.106;20.014;2022-08-20T13:42:48;28.95;;;9.52;;
38455;SDS011;24237;50.106;20.014;2022-08-20T13:45:13;19.42;;;8.02;;
38455;SDS011;24237;50.106;20.014;2022-08-20T13:47:40;21.00;;;6.57;;
38455;SDS011;24237;50.106;20.014;2022-08-20T13:50:17;16.52;;;5.10;;
38455;SDS011;24237;50.106;20.014;2022-08-20T13:53:13;11.15;;;4.97;;
38455;SDS011;24237;50.106;20.014;2022-08-20T13:56:08;12.05;;;3.80;;
38455;SDS011;24237;50.106;20.014;2022-08-20T13:58:53;6.82;;;3.45;;
38455;SDS011;24237;50.106;20.014;2022-08-20T14:01:19;12.73;;;2.45;;
38455;SDS011;24237;50.106;20.014;2022-08-20T14:03:50;9.73;;;2.72;;
38455;SDS011;24237;50.106;20.014;2022-08-20T14:06:17;11.90;;;2.05;;
38455;SDS011;24237;50.106;20.014;2022-08-20T14:08:42;9.70;;;2.55;;
38455;SDS011;24237;50.106;20.014;2022-08-20T14:11:08;10.88;;;2.10;;
38455;SDS011;24237;50.106;20.014;2022-08-20T14:13:35;7.20;;;3.38;;
38455;SDS011;24237;50.106;20.014;2022-08-20T14:16:13;6.03;;;3.45;;
38455;SDS011;24237;50.106;20.014;2022-08-20T14:18:38;13.82;;;4.10;;
38455;SDS011;24237;50.106;20.014;2022-08-20T14:21:04;11.98;;;4.55;;
38455;SDS011;24237;50.106;20.014;2022-08-20T14:23:42;10.68;;;4.10;;
38455;SDS011;24237;50.106;20.014;2022-08-20T14:28:39;14.00;;;5.68;;
38455;SDS011;24237;50.106;20.014;2022-08-20T14:31:10;11.68;;;5.45;;
38455;SDS011;24237;50.106;20.014;2022-08-20T14:33:37;12.32;;;5.93;;
38455;SDS011;24237;50.106;20.014;2022-08-20T14:36:03;17.80;;;5.78;;
38455;SDS011;24237;50.106;20.014;2022-08-20T14:38:29;9.18;;;5.57;;
38455;SDS011;24237;50.106;20.014;2022-08-20T14:40:54;14.85;;;6.70;;
38455;SDS011;24237;50.106;20.014;2022-08-20T14:43:23;12.95;;;5.75;;
38455;SDS011;24237;50.106;20.014;2022-08-20T14:45:49;8.05;;;5.45;;
38455;SDS011;24237;50.106;20.014;2022-08-20T14:48:14;14.55;;;5.93;;
38455;SDS011;24237;50.106;20.014;2022-08-20T14:51:00;11.68;;;6.38;;
38455;SDS011;24237;50.106;20.014;2022-08-20T14:53:27;11.73;;;6.10;;
38455;SDS011;24237;50.106;20.014;2022-08-20T14:56:08;12.70;;;7.35;;
38455;SDS011;24237;50.106;20.014;2022-08-20T14:58:33;14.82;;;6.10;;
38455;SDS011;24237;50.106;20.014;2022-08-20T15:00:59;11.15;;;6.22;;
38455;SDS011;24237;50.106;20.014;2022-08-20T15:03:24;14.20;;;6.47;;
38455;SDS011;24237;50.106;20.014;2022-08-20T15:06:10;11.13;;;6.75;;
38455;SDS011;24237;50.106;20.014;2022-08-20T15:08:54;14.13;;;6.47;;
38455;SDS011;24237;50.106;20.014;2022-08-20T15:11:23;12.18;;;6.40;;
38455;SDS011;24237;50.106;20.014;2022-08-20T15:13:48;11.82;;;6.43;;
38455;SDS011;24237;50.106;20.014;2022-08-20T15:16:14;10.07;;;5.88;;
38455;SDS011;24237;50.106;20.014;2022-08-20T15:18:40;13.57;;;6.82;;